sensor_id;sensor_type;location;lat;lon;timestamp;pressure;altitude;pressure_sealevel;temperature;humidity
30935;BME280;51033;42.648;23.292;2023-02-23T00:01:14;93680.56;;;8.50;43.79
30935;BME280;51033;42.648;23.292;2023-02-23T00:03:41;93673.81;;;8.44;43.83
30935;BME280;51033;42.648;23.292;2023-02-23T00:06:07;93691.50;;;8.57;43.87
30935;BME280;51033;42.648;23.292;2023-02-23T00:08:34;93679.69;;;8.41;44.00
30935;BME280;51033;42.648;23.292;2023-02-23T00:11:05;93683.91;;;8.42;44.02
30935;BME280;51033;42.648;23.292;2023-02-23T00:13:35;93663.69;;;8.24;44.27
30935;BME280;51033;42.648;23.292;2023-02-23T00:16:08;93701.81;;;8.37;44.28
30935;BME280;51033;42.648;23.292;2023-02-23T00:18:36;93698.69;;;8.35;44.18
30935;BME280;51033;42.648;23.292;2023-02-23T00:21:31;93666.47;;;8.19;44.52
30935;BME280;51033;42.648;23.292;2023-02-23T00:24:01;93703.88;;;8.40;44.31
30935;BME280;51033;42.648;23.292;2023-02-23T00:26:29;93706.88;;;8.47;44.39
30935;BME280;51033;42.648;23.292;2023-02-23T00:28:58;93675.09;;;8.25;44.48
30935;BME280;51033;42.648;23.292;2023-02-23T00:31:25;93704.94;;;8.39;44.66
30935;BME280;51033;42.648;23.292;2023-02-23T00:33:56;93674.91;;;8.21;44.59
30935;BME280;51033;42.648;23.292;2023-02-23T00:36:25;93704.66;;;8.40;44.59
30935;BME280;51033;42.648;23.292;2023-02-23T00:38:52;93704.16;;;8.38;44.53
30935;BME280;51033;42.648;23.292;2023-02-23T00:41:18;93692.66;;;8.21;44.60
30935;BME280;51033;42.648;23.292;2023-02-23T00:43:53;93695.00;;;8.22;44.68
30935;BME280;51033;42.648;23.292;2023-02-23T00:46:21;93700.06;;;8.32;44.57
30935;BME280;51033;42.648;23.292;2023-02-23T00:48:48;93701.47;;;8.30;44.73
30935;BME280;51033;42.648;23.292;2023-02-23T00:51:15;93698.50;;;8.31;44.82
30935;BME280;51033;42.648;23.292;2023-02-23T00:53:41;93676.84;;;8.07;44.92
30935;BME280;51033;42.648;23.292;2023-02-23T00:56:09;93686.75;;;8.24;45.02
30935;BME280;51033;42.648;23.292;2023-02-23T00:58:34;93670.19;;;7.96;45.16
30935;BME280;51033;42.648;23.292;2023-02-23T01:01:03;93674.47;;;8.05;44.91
30935;BME280;51033;42.648;23.292;2023-02-23T01:03:29;93684.59;;;8.26;44.63
30935;BME280;51033;42.648;23.292;2023-02-23T01:05:59;93681.81;;;8.08;45.02
30935;BME280;51033;42.648;23.292;2023-02-23T01:08:28;93676.34;;;8.05;45.24
30935;BME280;51033;42.648;23.292;2023-02-23T01:10:54;93664.06;;;7.87;45.44
30935;BME280;51033;42.648;23.292;2023-02-23T01:13:20;93698.25;;;7.97;45.71
30935;BME280;51033;42.648;23.292;2023-02-23T01:15:46;93693.53;;;7.94;45.46
30935;BME280;51033;42.648;23.292;2023-02-23T01:18:15;93689.81;;;7.95;45.54
30935;BME280;51033;42.648;23.292;2023-02-23T01:20:41;93641.25;;;7.50;45.72
30935;BME280;51033;42.648;23.292;2023-02-23T01:23:07;93692.59;;;7.62;45.94
30935;BME280;51033;42.648;23.292;2023-02-23T01:25:35;93694.88;;;7.55;46.15
30935;BME280;51033;42.648;23.292;2023-02-23T01:28:02;93668.53;;;7.37;46.64
30935;BME280;51033;42.648;23.292;2023-02-23T01:30:28;93676.34;;;7.55;46.32
30935;BME280;51033;42.648;23.292;2023-02-23T01:32:53;93689.06;;;7.53;46.39
30935;BME280;51033;42.648;23.292;2023-02-23T01:35:19;93680.16;;;7.49;46.13
30935;BME280;51033;42.648;23.292;2023-02-23T01:37:44;93690.44;;;7.64;46.33
30935;BME280;51033;42.648;23.292;2023-02-23T01:40:16;93702.69;;;7.74;46.18
30935;BME280;51033;42.648;23.292;2023-02-23T01:43:14;93697.91;;;7.62;46.29
30935;BME280;51033;42.648;23.292;2023-02-23T01:45:43;93635.84;;;7.19;46.37
30935;BME280;51033;42.648;23.292;2023-02-23T01:48:13;93680.75;;;7.46;46.35
30935;BME280;51033;42.648;23.292;2023-02-23T01:51:01;93693.19;;;7.59;46.43
30935;BME280;51033;42.648;23.292;2023-02-23T01:53:30;93690.06;;;7.57;46.51
30935;BME280;51033;42.648;23.292;2023-02-23T01:56:04;93676.34;;;7.55;46.51
30935;BME280;51033;42.648;23.292;2023-02-23T01:58:38;93692.00;;;7.65;46.49
30935;BME280;51033;42.648;23.292;2023-02-23T02:01:05;93673.66;;;7.83;46.38
30935;BME280;51033;42.648;23.292;2023-02-23T02:03:35;93662.19;;;7.73;46.04
30935;BME280;51033;42.648;23.292;2023-02-23T02:06:03;93682.97;;;7.80;46.30
30935;BME280;51033;42.648;23.292;2023-02-23T02:08:30;93657.69;;;7.60;46.26
30935;BME280;51033;42.648;23.292;2023-02-23T02:10:56;93661.41;;;7.73;46.29
30935;BME280;51033;42.648;23.292;2023-02-23T02:13:25;93671.59;;;7.80;46.30
30935;BME280;51033;42.648;23.292;2023-02-23T02:43:11;93687.13;;;7.73;46.61
30935;BME280;51033;42.648;23.292;2023-02-23T02:56:07;93640.88;;;7.29;46.68
30935;BME280;51033;42.648;23.292;2023-02-23T02:58:35;93673.50;;;7.52;46.69
30935;BME280;51033;42.648;23.292;2023-02-23T03:01:08;93675.38;;;7.51;46.78
30935;BME280;51033;42.648;23.292;2023-02-23T03:03:55;93671.75;;;7.47;46.72
30935;BME280;51033;42.648;23.292;2023-02-23T03:06:52;93681.06;;;7.31;47.04
30935;BME280;51033;42.648;23.292;2023-02-23T03:10:32;93677.38;;;7.18;47.47
30935;BME280;51033;42.648;23.292;2023-02-23T03:13:14;93680.66;;;7.24;47.28
30935;BME280;51033;42.648;23.292;2023-02-23T03:16:22;93678.53;;;7.26;47.30
30935;BME280;51033;42.648;23.292;2023-02-23T03:19:16;93677.38;;;7.18;47.58
30935;BME280;51033;42.648;23.292;2023-02-23T03:22:07;93687.72;;;7.15;47.46
30935;BME280;51033;42.648;23.292;2023-02-23T03:31:06;93695.16;;;6.85;48.19
30935;BME280;51033;42.648;23.292;2023-02-23T03:34:14;93699.56;;;6.76;48.38
30935;BME280;51033;42.648;23.292;2023-02-23T03:37:25;93703.97;;;6.81;48.53
30935;BME280;51033;42.648;23.292;2023-02-23T03:43:05;93681.22;;;6.53;49.11
30935;BME280;51033;42.648;23.292;2023-02-23T03:45:51;93695.72;;;6.55;49.50
30935;BME280;51033;42.648;23.292;2023-02-23T03:48:39;93679.81;;;6.41;49.18
30935;BME280;51033;42.648;23.292;2023-02-23T03:51:24;93702.84;;;6.55;49.11
30935;BME280;51033;42.648;23.292;2023-02-23T03:54:16;93708.00;;;6.46;49.64
30935;BME280;51033;42.648;23.292;2023-02-23T03:57:06;93708.91;;;6.55;49.52
30935;BME280;51033;42.648;23.292;2023-02-23T03:59:56;93709.91;;;6.59;49.10
30935;BME280;51033;42.648;23.292;2023-02-23T04:02:44;93707.25;;;6.59;49.18
30935;BME280;51033;42.648;23.292;2023-02-23T04:05:30;93718.13;;;6.58;49.23
30935;BME280;51033;42.648;23.292;2023-02-23T04:08:18;93692.34;;;6.36;49.51
30935;BME280;51033;42.648;23.292;2023-02-23T04:11:12;93712.69;;;6.35;49.53
30935;BME280;51033;42.648;23.292;2023-02-23T04:14:01;93712.28;;;6.42;49.75
30935;BME280;51033;42.648;23.292;2023-02-23T04:16:29;93699.84;;;6.29;49.95
30935;BME280;51033;42.648;23.292;2023-02-23T04:18:56;93700.25;;;6.17;50.05
30935;BME280;51033;42.648;23.292;2023-02-23T04:21:22;93700.97;;;6.04;50.27
30935;BME280;51033;42.648;23.292;2023-02-23T04:23:47;93712.72;;;6.12;50.33
30935;BME280;51033;42.648;23.292;2023-02-23T04:26:13;93691.41;;;6.08;50.40
30935;BME280;51033;42.648;23.292;2023-02-23T04:28:38;93681.03;;;6.12;50.46
30935;BME280;51033;42.648;23.292;2023-02-23T04:31:04;93703.66;;;6.36;50.38
30935;BME280;51033;42.648;23.292;2023-02-23T04:33:29;93710.50;;;6.37;50.22
30935;BME280;51033;42.648;23.292;2023-02-23T04:35:55;93678.75;;;5.91;50.50
30935;BME280;51033;42.648;23.292;2023-02-23T04:38:21;93690.69;;;6.02;50.62
30935;BME280;51033;42.648;23.292;2023-02-23T04:40:46;93714.56;;;6.16;50.81
30935;BME280;51033;42.648;23.292;2023-02-23T04:43:12;93702.34;;;6.02;50.74
30935;BME280;51033;42.648;23.292;2023-02-23T04:45:37;93715.88;;;6.14;50.61
30935;BME280;51033;42.648;23.292;2023-02-23T04:48:03;93701.06;;;5.99;50.79
30935;BME280;51033;42.648;23.292;2023-02-23T04:50:28;93716.47;;;6.11;50.87
30935;BME280;51033;42.648;23.292;2023-02-23T04:52:54;93710.88;;;6.12;50.73
30935;BME280;51033;42.648;23.292;2023-02-23T04:55:22;93670.44;;;5.98;50.77
30935;BME280;51033;42.648;23.292;2023-02-23T04:57:49;93711.63;;;6.18;50.85
30935;BME280;51033;42.648;23.292;2023-02-23T05:00:15;93714.88;;;6.10;51.05
30935;BME280;51033;42.648;23.292;2023-02-23T05:02:42;93694.34;;;6.07;50.61
30935;BME280;51033;42.648;23.292;2023-02-23T05:05:07;93684.94;;;6.00;50.68
30935;BME280;51033;42.648;23.292;2023-02-23T05:07:33;93708.09;;;6.04;51.05
30935;BME280;51033;42.648;23.292;2023-02-23T05:09:59;93708.63;;;6.06;50.96
30935;BME280;51033;42.648;23.292;2023-02-23T05:12:24;93683.50;;;5.89;51.07
30935;BME280;51033;42.648;23.292;2023-02-23T05:14:50;93691.78;;;6.02;50.71
30935;BME280;51033;42.648;23.292;2023-02-23T05:17:15;93699.63;;;6.07;50.60
30935;BME280;51033;42.648;23.292;2023-02-23T05:19:41;93713.25;;;6.14;50.80
30935;BME280;51033;42.648;23.292;2023-02-23T05:22:06;93701.28;;;6.21;50.43
30935;BME280;51033;42.648;23.292;2023-02-23T05:24:36;93724.31;;;6.34;50.29
30935;BME280;51033;42.648;23.292;2023-02-23T05:27:02;93725.34;;;6.20;50.46
30935;BME280;51033;42.648;23.292;2023-02-23T05:29:27;93720.06;;;6.20;50.20
30935;BME280;51033;42.648;23.292;2023-02-23T05:31:53;93715.31;;;6.17;50.33
30935;BME280;51033;42.648;23.292;2023-02-23T05:34:18;93734.75;;;6.26;50.45
30935;BME280;51033;42.648;23.292;2023-02-23T05:36:43;93711.19;;;6.11;50.39
30935;BME280;51033;42.648;23.292;2023-02-23T05:39:09;93701.91;;;5.94;50.38
30935;BME280;51033;42.648;23.292;2023-02-23T05:41:34;93737.66;;;6.06;50.77
30935;BME280;51033;42.648;23.292;2023-02-23T05:43:59;93725.81;;;6.03;50.85
30935;BME280;51033;42.648;23.292;2023-02-23T05:46:25;93743.88;;;6.15;50.81
30935;BME280;51033;42.648;23.292;2023-02-23T05:48:56;93737.06;;;6.09;50.82
30935;BME280;51033;42.648;23.292;2023-02-23T05:51:23;93705.75;;;5.83;51.11
30935;BME280;51033;42.648;23.292;2023-02-23T05:53:48;93742.28;;;6.14;51.19
30935;BME280;51033;42.648;23.292;2023-02-23T05:56:15;93752.81;;;6.19;51.05
30935;BME280;51033;42.648;23.292;2023-02-23T05:58:48;93750.47;;;6.12;51.07
30935;BME280;51033;42.648;23.292;2023-02-23T06:01:14;93760.22;;;6.17;51.10
30935;BME280;51033;42.648;23.292;2023-02-23T06:03:39;93756.34;;;6.09;50.97
30935;BME280;51033;42.648;23.292;2023-02-23T06:06:05;93751.94;;;6.05;50.97
30935;BME280;51033;42.648;23.292;2023-02-23T06:08:31;93763.47;;;6.09;51.27
30935;BME280;51033;42.648;23.292;2023-02-23T06:10:57;93756.75;;;5.97;51.55
30935;BME280;51033;42.648;23.292;2023-02-23T06:13:22;93770.16;;;6.25;51.36
30935;BME280;51033;42.648;23.292;2023-02-23T06:15:47;93768.63;;;6.37;51.51
30935;BME280;51033;42.648;23.292;2023-02-23T06:18:13;93773.28;;;6.46;51.54
30935;BME280;51033;42.648;23.292;2023-02-23T06:20:39;93754.84;;;6.22;52.11
30935;BME280;51033;42.648;23.292;2023-02-23T06:23:05;93774.69;;;6.38;51.90
30935;BME280;51033;42.648;23.292;2023-02-23T06:25:31;93773.84;;;6.42;52.00
30935;BME280;51033;42.648;23.292;2023-02-23T06:27:59;93754.44;;;6.33;52.22
30935;BME280;51033;42.648;23.292;2023-02-23T06:30:25;93771.66;;;6.63;51.55
30935;BME280;51033;42.648;23.292;2023-02-23T06:32:50;93767.03;;;6.88;50.91
30935;BME280;51033;42.648;23.292;2023-02-23T06:35:16;93765.47;;;6.86;51.05
30935;BME280;51033;42.648;23.292;2023-02-23T06:37:41;93768.22;;;6.95;51.00
30935;BME280;51033;42.648;23.292;2023-02-23T06:40:08;93773.84;;;7.07;50.84
30935;BME280;51033;42.648;23.292;2023-02-23T06:42:33;93784.31;;;7.12;51.10
30935;BME280;51033;42.648;23.292;2023-02-23T06:45:00;93785.50;;;7.20;50.64
30935;BME280;51033;42.648;23.292;2023-02-23T06:47:26;93787.09;;;7.35;50.05
30935;BME280;51033;42.648;23.292;2023-02-23T06:49:51;93769.53;;;7.25;50.44
30935;BME280;51033;42.648;23.292;2023-02-23T06:52:17;93779.91;;;7.08;50.87
30935;BME280;51033;42.648;23.292;2023-02-23T06:54:42;93757.50;;;7.19;50.32
30935;BME280;51033;42.648;23.292;2023-02-23T06:57:08;93765.53;;;7.41;50.12
30935;BME280;51033;42.648;23.292;2023-02-23T06:59:34;93765.22;;;7.29;50.67
30935;BME280;51033;42.648;23.292;2023-02-23T07:02:00;93770.63;;;7.51;50.28
30935;BME280;51033;42.648;23.292;2023-02-23T07:04:26;93768.97;;;7.55;50.11
30935;BME280;51033;42.648;23.292;2023-02-23T07:06:51;93769.84;;;7.37;50.46
30935;BME280;51033;42.648;23.292;2023-02-23T07:09:18;93786.34;;;7.75;49.78
30935;BME280;51033;42.648;23.292;2023-02-23T07:11:43;93777.22;;;7.67;49.47
30935;BME280;51033;42.648;23.292;2023-02-23T07:14:12;93764.56;;;7.51;49.64
30935;BME280;51033;42.648;23.292;2023-02-23T07:16:38;93793.41;;;7.80;49.76
30935;BME280;51033;42.648;23.292;2023-02-23T07:19:04;93792.97;;;7.32;51.33
30935;BME280;51033;42.648;23.292;2023-02-23T07:21:30;93778.19;;;6.84;52.07
30935;BME280;51033;42.648;23.292;2023-02-23T07:23:59;93800.34;;;6.89;52.26
30935;BME280;51033;42.648;23.292;2023-02-23T07:26:25;93793.72;;;6.40;52.50
30935;BME280;51033;42.648;23.292;2023-02-23T07:28:50;93781.22;;;5.84;53.44
30935;BME280;51033;42.648;23.292;2023-02-23T07:31:16;93791.81;;;6.59;52.53
30935;BME280;51033;42.648;23.292;2023-02-23T07:33:41;93784.81;;;6.68;51.37
30935;BME280;51033;42.648;23.292;2023-02-23T07:36:08;93785.78;;;6.72;51.29
30935;BME280;51033;42.648;23.292;2023-02-23T07:38:33;93782.38;;;6.21;53.11
30935;BME280;51033;42.648;23.292;2023-02-23T07:40:59;93779.53;;;6.68;52.28
30935;BME280;51033;42.648;23.292;2023-02-23T07:43:25;93772.56;;;6.40;52.68
30935;BME280;51033;42.648;23.292;2023-02-23T07:45:50;93773.91;;;6.37;52.75
30935;BME280;51033;42.648;23.292;2023-02-23T07:48:17;93771.75;;;6.58;52.21
30935;BME280;51033;42.648;23.292;2023-02-23T07:50:43;93784.53;;;6.51;52.48
30935;BME280;51033;42.648;23.292;2023-02-23T07:53:09;93776.38;;;7.12;51.22
30935;BME280;51033;42.648;23.292;2023-02-23T07:55:35;93768.09;;;7.33;50.29
30935;BME280;51033;42.648;23.292;2023-02-23T07:58:03;93768.22;;;6.95;51.47
30935;BME280;51033;42.648;23.292;2023-02-23T08:00:28;93758.78;;;6.43;52.69
30935;BME280;51033;42.648;23.292;2023-02-23T08:02:54;93750.59;;;6.91;51.66
30935;BME280;51033;42.648;23.292;2023-02-23T08:05:20;93768.06;;;7.60;50.17
30935;BME280;51033;42.648;23.292;2023-02-23T08:07:45;93760.56;;;7.81;49.29
30935;BME280;51033;42.648;23.292;2023-02-23T08:10:11;93750.91;;;7.98;48.68
30935;BME280;51033;42.648;23.292;2023-02-23T08:12:36;93753.31;;;8.08;48.48
30935;BME280;51033;42.648;23.292;2023-02-23T08:15:05;93787.31;;;8.29;47.93
30935;BME280;51033;42.648;23.292;2023-02-23T08:17:33;93754.06;;;8.36;47.96
30935;BME280;51033;42.648;23.292;2023-02-23T08:19:58;93749.59;;;8.45;47.59
30935;BME280;51033;42.648;23.292;2023-02-23T08:22:24;93762.84;;;8.68;47.09
30935;BME280;51033;42.648;23.292;2023-02-23T08:24:50;93761.47;;;8.70;46.50
30935;BME280;51033;42.648;23.292;2023-02-23T08:27:15;93767.88;;;9.00;46.64
30935;BME280;51033;42.648;23.292;2023-02-23T08:29:41;93761.84;;;8.19;47.68
30935;BME280;51033;42.648;23.292;2023-02-23T08:32:06;93762.53;;;8.47;47.70
30935;BME280;51033;42.648;23.292;2023-02-23T08:34:36;93778.56;;;8.86;46.80
30935;BME280;51033;42.648;23.292;2023-02-23T08:37:02;93771.78;;;9.02;46.25
30935;BME280;51033;42.648;23.292;2023-02-23T08:39:27;93769.81;;;8.64;47.08
30935;BME280;51033;42.648;23.292;2023-02-23T08:41:52;93768.78;;;8.95;46.68
30935;BME280;51033;42.648;23.292;2023-02-23T08:44:19;93757.63;;;9.07;46.49
30935;BME280;51033;42.648;23.292;2023-02-23T08:46:45;93767.75;;;9.27;45.48
30935;BME280;51033;42.648;23.292;2023-02-23T08:49:10;93769.81;;;9.39;45.55
30935;BME280;51033;42.648;23.292;2023-02-23T08:51:36;93779.00;;;8.80;46.34
30935;BME280;51033;42.648;23.292;2023-02-23T08:54:01;93773.63;;;8.93;46.54
30935;BME280;51033;42.648;23.292;2023-02-23T08:56:26;93758.88;;;9.40;45.03
30935;BME280;51033;42.648;23.292;2023-02-23T08:58:52;93771.06;;;9.81;44.21
30935;BME280;51033;42.648;23.292;2023-02-23T09:01:19;93751.78;;;9.58;44.88
30935;BME280;51033;42.648;23.292;2023-02-23T09:03:46;93761.94;;;9.65;44.97
30935;BME280;51033;42.648;23.292;2023-02-23T09:06:15;93764.88;;;9.55;44.72
30935;BME280;51033;42.648;23.292;2023-02-23T09:08:41;93731.53;;;9.31;44.78
30935;BME280;51033;42.648;23.292;2023-02-23T09:11:06;93748.97;;;8.71;46.27
30935;BME280;51033;42.648;23.292;2023-02-23T09:13:32;93755.44;;;9.09;45.49
30935;BME280;51033;42.648;23.292;2023-02-23T09:15:58;93756.56;;;8.86;46.13
30935;BME280;51033;42.648;23.292;2023-02-23T09:18:23;93746.06;;;8.81;46.05
30935;BME280;51033;42.648;23.292;2023-02-23T09:20:53;93741.44;;;9.48;46.38
30935;BME280;51033;42.648;23.292;2023-02-23T09:23:19;93750.75;;;9.06;45.82
30935;BME280;51033;42.648;23.292;2023-02-23T09:25:45;93742.81;;;8.84;46.03
30935;BME280;51033;42.648;23.292;2023-02-23T09:28:15;93745.00;;;8.82;46.08
30935;BME280;51033;42.648;23.292;2023-02-23T09:30:41;93720.63;;;9.11;46.13
30935;BME280;51033;42.648;23.292;2023-02-23T09:33:07;93766.97;;;9.05;46.15
30935;BME280;51033;42.648;23.292;2023-02-23T09:35:33;93766.16;;;9.26;45.87
30935;BME280;51033;42.648;23.292;2023-02-23T09:38:01;93766.13;;;9.49;45.41
30935;BME280;51033;42.648;23.292;2023-02-23T09:40:48;93751.72;;;9.41;45.48
30935;BME280;51033;42.648;23.292;2023-02-23T09:43:34;93743.28;;;9.87;43.84
30935;BME280;51033;42.648;23.292;2023-02-23T09:46:13;93776.34;;;9.72;44.68
30935;BME280;51033;42.648;23.292;2023-02-23T09:48:44;93766.75;;;10.11;43.70
30935;BME280;51033;42.648;23.292;2023-02-23T09:51:15;93723.31;;;9.41;44.56
30935;BME280;51033;42.648;23.292;2023-02-23T09:53:44;93765.34;;;10.13;43.24
30935;BME280;51033;42.648;23.292;2023-02-23T09:56:24;93761.81;;;10.61;42.69
30935;BME280;51033;42.648;23.292;2023-02-23T09:58:53;93718.47;;;10.60;42.08
30935;BME280;51033;42.648;23.292;2023-02-23T10:12:29;93740.81;;;10.68;43.03
30935;BME280;51033;42.648;23.292;2023-02-23T10:15:22;93746.56;;;10.96;42.01
30935;BME280;51033;42.648;23.292;2023-02-23T10:18:37;93749.47;;;11.29;41.63
30935;BME280;51033;42.648;23.292;2023-02-23T10:21:14;93742.78;;;11.60;41.19
30935;BME280;51033;42.648;23.292;2023-02-23T10:24:04;93732.72;;;11.66;41.44
30935;BME280;51033;42.648;23.292;2023-02-23T10:26:41;93734.28;;;11.67;40.77
30935;BME280;51033;42.648;23.292;2023-02-23T10:31:59;93734.84;;;11.52;40.54
30935;BME280;51033;42.648;23.292;2023-02-23T10:34:26;93729.91;;;11.16;41.46
30935;BME280;51033;42.648;23.292;2023-02-23T10:37:01;93709.38;;;10.27;42.48
30935;BME280;51033;42.648;23.292;2023-02-23T10:39:31;93716.75;;;10.56;43.30
30935;BME280;51033;42.648;23.292;2023-02-23T10:41:59;93723.44;;;10.62;42.08
30935;BME280;51033;42.648;23.292;2023-02-23T10:44:27;93718.88;;;10.88;41.62
30935;BME280;51033;42.648;23.292;2023-02-23T10:47:04;93715.41;;;11.05;41.44
30935;BME280;51033;42.648;23.292;2023-02-23T10:49:44;93701.94;;;11.48;40.91
30935;BME280;51033;42.648;23.292;2023-02-23T10:52:13;93708.34;;;12.06;39.81
30935;BME280;51033;42.648;23.292;2023-02-23T10:54:46;93692.09;;;12.40;39.94
30935;BME280;51033;42.648;23.292;2023-02-23T11:02:25;93690.91;;;12.29;38.83
30935;BME280;51033;42.648;23.292;2023-02-23T11:04:53;93692.75;;;11.95;39.34
30935;BME280;51033;42.648;23.292;2023-02-23T11:07:29;93696.72;;;11.60;39.98
30935;BME280;51033;42.648;23.292;2023-02-23T11:10:19;93691.09;;;11.82;39.65
30935;BME280;51033;42.648;23.292;2023-02-23T11:12:44;93682.59;;;12.10;38.88
30935;BME280;51033;42.648;23.292;2023-02-23T11:17:44;93685.97;;;11.77;39.76
30935;BME280;51033;42.648;23.292;2023-02-23T11:20:52;93689.38;;;12.07;39.23
30935;BME280;51033;42.648;23.292;2023-02-23T11:23:35;93653.63;;;12.62;38.14
30935;BME280;51033;42.648;23.292;2023-02-23T11:26:19;93650.69;;;12.75;37.45
30935;BME280;51033;42.648;23.292;2023-02-23T11:28:52;93659.81;;;12.86;37.41
30935;BME280;51033;42.648;23.292;2023-02-23T11:31:21;93666.56;;;12.72;37.47
30935;BME280;51033;42.648;23.292;2023-02-23T11:33:48;93662.44;;;12.21;38.02
30935;BME280;51033;42.648;23.292;2023-02-23T11:39:26;93623.72;;;12.02;37.96
30935;BME280;51033;42.648;23.292;2023-02-23T11:42:17;93662.28;;;12.59;41.24
30935;BME280;51033;42.648;23.292;2023-02-23T11:44:51;93632.75;;;12.10;38.68
30935;BME280;51033;42.648;23.292;2023-02-23T11:47:26;93640.72;;;12.31;38.62
30935;BME280;51033;42.648;23.292;2023-02-23T11:49:52;93650.59;;;12.96;39.86
30935;BME280;51033;42.648;23.292;2023-02-23T11:52:21;93650.09;;;13.27;36.88
30935;BME280;51033;42.648;23.292;2023-02-23T11:54:54;93642.16;;;12.94;37.59
30935;BME280;51033;42.648;23.292;2023-02-23T11:57:33;93648.44;;;12.77;37.76
30935;BME280;51033;42.648;23.292;2023-02-23T12:00:01;93625.84;;;12.63;37.77
30935;BME280;51033;42.648;23.292;2023-02-23T12:02:50;93632.81;;;12.22;38.35
30935;BME280;51033;42.648;23.292;2023-02-23T12:05:21;93639.84;;;12.39;38.07
30935;BME280;51033;42.648;23.292;2023-02-23T12:08:05;93646.41;;;12.62;37.63
30935;BME280;51033;42.648;23.292;2023-02-23T12:16:02;93645.81;;;12.89;37.06
30935;BME280;51033;42.648;23.292;2023-02-23T12:21:38;93638.06;;;13.45;36.60
30935;BME280;51033;42.648;23.292;2023-02-23T12:24:20;93632.50;;;13.26;36.49
30935;BME280;51033;42.648;23.292;2023-02-23T12:26:54;93613.75;;;12.65;37.26
30935;BME280;51033;42.648;23.292;2023-02-23T12:32:18;93626.91;;;13.07;36.57
30935;BME280;51033;42.648;23.292;2023-02-23T12:34:50;93615.56;;;12.53;37.50
30935;BME280;51033;42.648;23.292;2023-02-23T12:39:50;93630.69;;;12.94;37.21
30935;BME280;51033;42.648;23.292;2023-02-23T12:44:51;93622.38;;;13.68;36.36
30935;BME280;51033;42.648;23.292;2023-02-23T12:47:47;93632.03;;;13.12;36.85
30935;BME280;51033;42.648;23.292;2023-02-23T12:52:57;93607.53;;;12.61;37.59
30935;BME280;51033;42.648;23.292;2023-02-23T12:55:38;93612.06;;;12.61;37.68
30935;BME280;51033;42.648;23.292;2023-02-23T12:58:27;93623.75;;;12.47;37.91
30935;BME280;51033;42.648;23.292;2023-02-23T13:03:35;93619.59;;;12.26;38.44
30935;BME280;51033;42.648;23.292;2023-02-23T13:16:36;93630.13;;;12.76;38.52
30935;BME280;51033;42.648;23.292;2023-02-23T13:19:31;93624.81;;;12.55;38.91
30935;BME280;51033;42.648;23.292;2023-02-23T13:22:33;93618.84;;;12.37;39.65
30935;BME280;51033;42.648;23.292;2023-02-23T13:25:12;93620.44;;;12.83;39.02
30935;BME280;51033;42.648;23.292;2023-02-23T13:27:48;93616.22;;;12.82;38.64
30935;BME280;51033;42.648;23.292;2023-02-23T13:30:16;93609.34;;;13.06;38.69
30935;BME280;51033;42.648;23.292;2023-02-23T13:32:45;93608.63;;;12.72;39.08
30935;BME280;51033;42.648;23.292;2023-02-23T13:35:15;93568.59;;;12.72;38.91
30935;BME280;51033;42.648;23.292;2023-02-23T13:37:52;93609.34;;;12.94;38.73
30935;BME280;51033;42.648;23.292;2023-02-23T13:45:52;93612.22;;;12.88;39.02
30935;BME280;51033;42.648;23.292;2023-02-23T13:48:33;93616.78;;;12.88;39.16
30935;BME280;51033;42.648;23.292;2023-02-23T13:56:23;93613.56;;;13.07;38.61
30935;BME280;51033;42.648;23.292;2023-02-23T13:59:26;93620.94;;;13.34;38.07
30935;BME280;51033;42.648;23.292;2023-02-23T14:01:54;93614.78;;;12.97;38.56
30935;BME280;51033;42.648;23.292;2023-02-23T14:04:26;93616.47;;;13.26;38.34
30935;BME280;51033;42.648;23.292;2023-02-23T14:07:50;93600.00;;;13.36;37.81
30935;BME280;51033;42.648;23.292;2023-02-23T14:10:03;93616.47;;;13.62;37.44
30935;BME280;51033;42.648;23.292;2023-02-23T14:12:38;93612.78;;;13.06;37.92
30935;BME280;51033;42.648;23.292;2023-02-23T14:18:00;93603.78;;;13.59;37.40
30935;BME280;51033;42.648;23.292;2023-02-23T14:23:16;93613.03;;;13.62;37.35
30935;BME280;51033;42.648;23.292;2023-02-23T14:25:51;93619.13;;;13.50;37.45
30935;BME280;51033;42.648;23.292;2023-02-23T14:31:15;93607.94;;;13.97;36.77
30935;BME280;51033;42.648;23.292;2023-02-23T14:39:00;93596.97;;;14.14;36.98
30935;BME280;51033;42.648;23.292;2023-02-23T14:44:06;93601.97;;;14.15;37.24
30935;BME280;51033;42.648;23.292;2023-02-23T14:46:36;93583.06;;;14.36;37.03
30935;BME280;51033;42.648;23.292;2023-02-23T14:49:07;93594.56;;;14.52;37.19
30935;BME280;51033;42.648;23.292;2023-02-23T14:51:38;93594.13;;;14.50;36.64
30935;BME280;51033;42.648;23.292;2023-02-23T14:54:12;93583.66;;;14.02;37.31
30935;BME280;51033;42.648;23.292;2023-02-23T14:56:48;93593.75;;;12.83;39.79
30935;BME280;51033;42.648;23.292;2023-02-23T14:59:22;93584.19;;;12.70;39.97
30935;BME280;51033;42.648;23.292;2023-02-23T15:01:50;93595.41;;;12.43;40.90
30935;BME280;51033;42.648;23.292;2023-02-23T15:04:19;93601.34;;;11.95;42.19
30935;BME280;51033;42.648;23.292;2023-02-23T15:06:46;93604.19;;;11.69;42.54
30935;BME280;51033;42.648;23.292;2023-02-23T15:09:19;93616.41;;;11.11;43.51
30935;BME280;51033;42.648;23.292;2023-02-23T15:11:47;93622.63;;;10.95;43.86
30935;BME280;51033;42.648;23.292;2023-02-23T15:14:14;93614.25;;;10.76;44.40
30935;BME280;51033;42.648;23.292;2023-02-23T15:16:41;93600.31;;;10.70;44.20
30935;BME280;51033;42.648;23.292;2023-02-23T15:19:16;93621.69;;;11.20;43.57
30935;BME280;51033;42.648;23.292;2023-02-23T15:21:42;93607.19;;;10.71;44.34
30935;BME280;51033;42.648;23.292;2023-02-23T15:24:14;93627.88;;;10.57;44.90
30935;BME280;51033;42.648;23.292;2023-02-23T15:26:46;93623.25;;;10.02;45.93
30935;BME280;51033;42.648;23.292;2023-02-23T15:29:13;93638.72;;;9.74;46.50
30935;BME280;51033;42.648;23.292;2023-02-23T15:31:41;93644.31;;;9.64;46.92